createdAt,value
2016-07-22T00:00:02.485Z,-84
2016-07-22T00:01:02.273Z,-85
2016-07-22T00:02:02.414Z,-84
2016-07-22T00:03:02.345Z,-84
2016-07-22T00:04:02.392Z,-84
2016-07-22T00:05:02.422Z,-84
2016-07-22T00:06:02.261Z,-84
2016-07-22T00:07:02.424Z,-85
2016-07-22T00:08:02.500Z,-85
2016-07-22T00:09:02.349Z,-84
2016-07-22T00:10:02.251Z,-84
2016-07-22T00:11:02.424Z,-84
2016-07-22T00:12:02.349Z,-84
2016-07-22T00:13:02.498Z,-85
2016-07-22T00:14:02.512Z,-85
2016-07-22T00:15:02.379Z,-85
2016-07-22T00:16:02.399Z,-84
2016-07-22T00:17:02.496Z,-85
2016-07-22T00:18:02.302Z,-85
2016-07-22T00:19:02.373Z,-85
2016-07-22T00:20:02.412Z,-84
2016-07-22T00:21:02.308Z,-85
2016-07-22T00:22:02.454Z,-84
2016-07-22T00:23:02.317Z,-84
2016-07-22T00:24:02.383Z,-85
2016-07-22T00:25:02.387Z,-84
2016-07-22T00:26:02.542Z,-84
2016-07-22T00:27:02.399Z,-84
2016-07-22T00:28:02.472Z,-84
2016-07-22T00:29:02.405Z,-85
2016-07-22T00:30:02.474Z,-84
2016-07-22T00:31:02.461Z,-85
2016-07-22T00:32:02.504Z,-85
2016-07-22T00:33:02.426Z,-84
2016-07-22T00:34:02.490Z,-84
2016-07-22T00:35:02.452Z,-84
2016-07-22T00:36:02.432Z,-84
2016-07-22T00:37:02.448Z,-84
2016-07-22T00:38:02.427Z,-85
2016-07-22T00:39:02.437Z,-85
2016-07-22T00:40:02.576Z,-84
2016-07-22T00:41:02.505Z,-85
2016-07-22T00:42:02.366Z,-85
2016-07-22T00:43:02.458Z,-85
2016-07-22T00:44:02.445Z,-85
2016-07-22T00:45:02.580Z,-84
2016-07-22T00:46:02.466Z,-84
2016-07-22T00:47:02.594Z,-85
2016-07-22T00:48:02.461Z,-84
2016-07-22T00:49:02.396Z,-85
2016-07-22T00:50:02.468Z,-84
2016-07-22T00:51:02.375Z,-84
2016-07-22T00:52:02.376Z,-84
2016-07-22T00:53:02.488Z,-84
2016-07-22T00:54:02.559Z,-85
2016-07-22T00:55:37.393Z,-84
2016-07-22T00:56:02.650Z,-84
2016-07-22T00:57:02.505Z,-85
2016-07-22T00:58:02.567Z,-84
2016-07-22T00:59:02.646Z,-84
2016-07-22T01:00:02.570Z,-84
2016-07-22T01:01:02.537Z,-84
2016-07-22T01:02:02.504Z,-84
2016-07-22T01:03:02.518Z,-84
2016-07-22T01:04:02.674Z,-85
2016-07-22T01:05:02.670Z,-85
2016-07-22T01:06:02.528Z,-84
2016-07-22T01:07:02.601Z,-85
2016-07-22T01:08:02.454Z,-84
2016-07-22T01:09:02.574Z,-84
2016-07-22T01:10:02.553Z,-84
2016-07-22T01:11:02.676Z,-84
2016-07-22T01:12:02.619Z,-85
2016-07-22T01:13:02.521Z,-84
2016-07-22T01:14:02.442Z,-84
2016-07-22T01:15:02.618Z,-84
2016-07-22T01:16:02.590Z,-84
2016-07-22T01:17:02.614Z,-84
2016-07-22T01:18:02.535Z,-85
2016-07-22T01:19:02.608Z,-85
2016-07-22T01:20:02.648Z,-84
2016-07-22T01:21:02.629Z,-85
2016-07-22T01:22:02.555Z,-85
2016-07-22T01:23:02.722Z,-84
2016-07-22T01:24:02.627Z,-85
2016-07-22T01:25:02.574Z,-85
2016-07-22T01:26:02.639Z,-85
2016-07-22T01:27:02.636Z,-84
2016-07-22T01:28:02.656Z,-84
2016-07-22T01:29:02.566Z,-85
2016-07-22T01:30:02.731Z,-85
2016-07-22T01:31:02.767Z,-84
2016-07-22T01:32:02.649Z,-84
2016-07-22T01:33:02.522Z,-84
2016-07-22T01:34:02.644Z,-85
2016-07-22T01:35:02.624Z,-84
2016-07-22T01:36:02.686Z,-84
2016-07-22T01:37:02.612Z,-85
2016-07-22T01:38:03.428Z,-85
2016-07-22T01:39:03.561Z,-85
2016-07-22T01:40:02.615Z,-85
2016-07-22T01:41:02.719Z,-84
2016-07-22T01:42:02.629Z,-85
2016-07-22T01:43:02.770Z,-85
2016-07-22T01:44:02.605Z,-84
2016-07-22T01:45:02.624Z,-84
2016-07-22T01:46:02.808Z,-85
2016-07-22T01:47:02.624Z,-85
2016-07-22T01:48:02.649Z,-85
2016-07-22T01:49:02.744Z,-85
2016-07-22T01:50:02.721Z,-84
2016-07-22T01:51:02.658Z,-84
2016-07-22T01:52:02.715Z,-85
2016-07-22T01:53:02.747Z,-84
2016-07-22T01:54:02.730Z,-84
2016-07-22T01:55:02.604Z,-86
2016-07-22T01:56:02.755Z,-84
2016-07-22T01:57:02.675Z,-85
2016-07-22T01:58:02.828Z,-84
2016-07-22T01:59:02.907Z,-84
2016-07-22T02:00:03.401Z,-84
2016-07-22T02:01:02.729Z,-84
2016-07-22T02:02:03.416Z,-85
2016-07-22T02:03:02.783Z,-85
2016-07-22T02:04:02.771Z,-85
2016-07-22T02:05:02.696Z,-84
2016-07-22T02:06:02.769Z,-85
2016-07-22T02:07:02.764Z,-85
2016-07-22T02:08:02.725Z,-85
2016-07-22T02:09:02.777Z,-84
2016-07-22T02:10:02.785Z,-84
2016-07-22T02:11:02.787Z,-84
2016-07-22T02:12:02.779Z,-85
2016-07-22T02:13:02.877Z,-84
2016-07-22T02:14:02.775Z,-85
2016-07-22T02:15:02.722Z,-84
2016-07-22T02:16:02.784Z,-85
2016-07-22T02:17:02.723Z,-85
2016-07-22T02:18:03.297Z,-84
2016-07-22T02:19:03.472Z,-84
2016-07-22T02:20:02.742Z,-85
2016-07-22T02:21:02.736Z,-84
2016-07-22T02:22:02.736Z,-84
2016-07-22T02:23:02.816Z,-85
2016-07-22T02:24:02.754Z,-85
2016-07-22T02:25:02.737Z,-84
2016-07-22T02:26:04.845Z,-85
2016-07-22T02:27:02.819Z,-85
2016-07-22T02:28:02.820Z,-84
2016-07-22T02:29:02.822Z,-85
2016-07-22T02:30:02.948Z,-85
2016-07-22T02:31:02.758Z,-85
2016-07-22T02:32:02.736Z,-85
2016-07-22T02:33:02.855Z,-85
2016-07-22T02:34:02.741Z,-85
2016-07-22T02:35:02.851Z,-85
2016-07-22T02:36:02.846Z,-84
2016-07-22T02:37:02.795Z,-85
2016-07-22T02:38:02.850Z,-85
2016-07-22T02:39:02.697Z,-85
2016-07-22T02:40:02.788Z,-84
2016-07-22T02:41:02.828Z,-85
2016-07-22T02:42:02.722Z,-84
2016-07-22T02:43:02.787Z,-85
2016-07-22T02:44:02.772Z,-84
2016-07-22T02:45:02.912Z,-84
2016-07-22T02:46:02.781Z,-84
2016-07-22T02:47:02.715Z,-84
2016-07-22T02:48:02.803Z,-84
2016-07-22T02:49:02.803Z,-85
2016-07-22T02:50:02.793Z,-84
2016-07-22T02:51:02.816Z,-85
2016-07-22T02:52:02.798Z,-85
2016-07-22T02:53:02.890Z,-84
2016-07-22T02:54:02.893Z,-85
2016-07-22T02:55:02.729Z,-84
2016-07-22T02:56:02.915Z,-84
2016-07-22T02:57:02.819Z,-84
2016-07-22T02:58:02.902Z,-85
2016-07-22T02:59:02.940Z,-84
2016-07-22T03:00:02.934Z,-84
2016-07-22T03:01:02.836Z,-85
2016-07-22T03:02:02.835Z,-84
2016-07-22T03:03:02.930Z,-85
2016-07-22T03:04:02.781Z,-85
2016-07-22T03:05:02.768Z,-85
2016-07-22T03:06:02.859Z,-85
2016-07-22T03:07:02.943Z,-84
2016-07-22T03:08:03.069Z,-85
2016-07-22T03:09:02.870Z,-85
2016-07-22T03:10:02.876Z,-85
2016-07-22T03:11:02.883Z,-84
2016-07-22T03:12:02.937Z,-85
2016-07-22T03:14:02.955Z,-85
2016-07-22T03:15:02.793Z,-85
2016-07-22T03:16:02.981Z,-84
2016-07-22T03:17:03.036Z,-84
2016-07-22T03:18:02.880Z,-84
2016-07-22T03:19:02.898Z,-85
2016-07-22T03:20:02.891Z,-85
2016-07-22T03:21:02.892Z,-85
2016-07-22T03:22:02.959Z,-85
2016-07-22T03:23:03.071Z,-85
2016-07-22T03:24:02.899Z,-84
2016-07-22T03:25:03.017Z,-85
2016-07-22T03:26:02.828Z,-84
2016-07-22T03:27:02.948Z,-85
2016-07-22T03:28:02.923Z,-85
2016-07-22T03:29:02.932Z,-85
2016-07-22T03:30:02.999Z,-85
2016-07-22T03:31:03.047Z,-85
2016-07-22T03:32:02.934Z,-84
2016-07-22T03:33:02.931Z,-85
2016-07-22T03:34:02.920Z,-85
2016-07-22T03:35:02.977Z,-85
2016-07-22T03:36:03.090Z,-85
2016-07-22T03:37:03.040Z,-85
2016-07-22T03:38:03.079Z,-84
2016-07-22T03:39:02.865Z,-84
2016-07-22T03:40:02.970Z,-85
2016-07-22T03:41:02.876Z,-84
2016-07-22T03:42:02.879Z,-85
2016-07-22T03:43:03.037Z,-85
2016-07-22T03:44:02.880Z,-84
2016-07-22T03:45:03.024Z,-85
2016-07-22T03:46:03.041Z,-85
2016-07-22T03:51:21.526Z,-84
2016-07-22T03:51:28.942Z,-85
2016-07-22T03:52:28.442Z,-85
2016-07-22T03:53:28.343Z,-85
2016-07-22T03:54:28.529Z,-85
2016-07-22T03:55:28.582Z,-84
2016-07-22T03:56:28.537Z,-85
2016-07-22T03:57:28.527Z,-85
2016-07-22T03:58:28.535Z,-85
2016-07-22T03:59:28.544Z,-84
2016-07-22T04:00:28.521Z,-85
2016-07-22T04:01:28.448Z,-84
2016-07-22T04:02:28.374Z,-84
2016-07-22T04:03:28.510Z,-84
2016-07-22T04:04:28.550Z,-85
2016-07-22T04:05:28.595Z,-85
2016-07-22T04:06:28.514Z,-84
2016-07-22T04:07:28.544Z,-85
2016-07-22T04:08:28.398Z,-84
2016-07-22T04:09:28.539Z,-84
2016-07-22T04:10:28.477Z,-85
2016-07-22T04:11:28.482Z,-85
2016-07-22T04:12:28.574Z,-85
2016-07-22T04:13:28.541Z,-85
2016-07-22T04:14:28.488Z,-84
2016-07-22T04:15:28.570Z,-85
2016-07-22T04:16:28.585Z,-84
2016-07-22T04:17:28.473Z,-85
2016-07-22T04:18:28.647Z,-85
2016-07-22T04:19:28.448Z,-85
2016-07-22T04:20:28.509Z,-84
2016-07-22T04:21:28.598Z,-85
2016-07-22T04:22:28.576Z,-85
2016-07-22T04:23:28.708Z,-84
2016-07-22T04:24:28.604Z,-85
2016-07-22T04:25:28.602Z,-84
2016-07-22T04:26:28.681Z,-85
2016-07-22T04:27:28.682Z,-85
2016-07-22T04:28:28.575Z,-85
2016-07-22T04:29:28.688Z,-85
2016-07-22T04:30:28.565Z,-85
2016-07-22T04:31:28.550Z,-85
2016-07-22T04:32:29.287Z,-85
2016-07-22T04:33:28.721Z,-85
2016-07-22T04:34:28.563Z,-84
2016-07-22T04:35:28.682Z,-85
2016-07-22T04:36:28.569Z,-85
2016-07-22T04:37:28.633Z,-85
2016-07-22T04:38:29.367Z,-84
2016-07-22T04:39:28.748Z,-85
2016-07-22T04:40:28.670Z,-85
2016-07-22T04:41:28.512Z,-85
2016-07-22T04:42:28.639Z,-84
2016-07-22T04:43:28.509Z,-85
2016-07-22T04:44:28.585Z,-85
2016-07-22T04:45:28.571Z,-85
2016-07-22T04:46:28.694Z,-85
2016-07-22T04:47:28.582Z,-85
2016-07-22T04:48:28.676Z,-85
2016-07-22T04:49:29.118Z,-85
2016-07-22T04:50:28.753Z,-89
2016-07-22T04:51:28.699Z,-88
2016-07-22T04:52:28.650Z,-88
2016-07-22T04:53:28.777Z,-88
2016-07-22T04:54:28.640Z,-87
2016-07-22T04:55:28.614Z,-88
2016-07-22T04:56:28.711Z,-87
2016-07-22T04:57:28.598Z,-87
2016-07-22T04:58:28.617Z,-87
2016-07-22T04:59:28.642Z,-87
2016-07-22T05:00:28.709Z,-88
2016-07-22T05:01:28.622Z,-88
2016-07-22T05:02:28.632Z,-87
2016-07-22T05:03:28.557Z,-88
2016-07-22T05:04:28.550Z,-87
2016-07-22T05:05:28.781Z,-87
2016-07-22T05:06:28.649Z,-87
2016-07-22T05:07:28.868Z,-88
2016-07-22T05:08:28.743Z,-87
2016-07-22T05:09:28.737Z,-87
2016-07-22T05:10:28.807Z,-87
2016-07-22T05:11:28.596Z,-87
2016-07-22T05:12:28.733Z,-88
2016-07-22T05:13:28.654Z,-88
2016-07-22T05:14:28.818Z,-87
2016-07-22T05:15:28.838Z,-87
2016-07-22T05:16:28.681Z,-88
2016-07-22T05:17:28.756Z,-87
2016-07-22T05:18:28.665Z,-87
2016-07-22T05:19:28.599Z,-87
2016-07-22T05:20:28.677Z,-87
2016-07-22T05:21:28.773Z,-87
2016-07-22T05:22:28.677Z,-87
2016-07-22T05:23:28.772Z,-87
2016-07-22T05:24:28.709Z,-87
2016-07-22T05:25:28.771Z,-87
2016-07-22T05:26:28.700Z,-87
2016-07-22T05:27:28.846Z,-87
2016-07-22T05:28:28.623Z,-87
2016-07-22T05:29:28.739Z,-87
2016-07-22T05:30:28.702Z,-87
2016-07-22T05:31:28.898Z,-87
2016-07-22T05:32:28.774Z,-86
2016-07-22T05:33:28.884Z,-87
2016-07-22T05:34:28.714Z,-87
2016-07-22T05:35:28.735Z,-87
2016-07-22T05:36:28.711Z,-88
2016-07-22T05:37:28.720Z,-87
2016-07-22T05:38:28.931Z,-87
2016-07-22T05:39:28.784Z,-87
2016-07-22T05:40:28.776Z,-87
2016-07-22T05:41:28.845Z,-87
2016-07-22T05:42:28.761Z,-87
2016-07-22T05:43:28.725Z,-87
2016-07-22T05:44:28.756Z,-87
2016-07-22T05:45:28.741Z,-87
2016-07-22T05:46:28.951Z,-87
2016-07-22T05:47:28.832Z,-87
2016-07-22T05:48:28.772Z,-87
2016-07-22T05:49:28.770Z,-87
2016-07-22T05:50:28.866Z,-87
2016-07-22T05:51:28.826Z,-87
2016-07-22T05:52:28.837Z,-87
2016-07-22T05:53:28.791Z,-87
2016-07-22T05:54:28.864Z,-86
2016-07-22T05:55:28.882Z,-87
2016-07-22T05:56:28.705Z,-87
2016-07-22T05:57:28.793Z,-87
2016-07-22T05:58:28.810Z,-87
2016-07-22T05:59:28.948Z,-87
2016-07-22T06:00:28.794Z,-87
2016-07-22T06:01:29.428Z,-87
2016-07-22T06:02:28.952Z,-87
2016-07-22T06:03:28.906Z,-87
2016-07-22T06:04:28.722Z,-86
2016-07-22T06:05:28.869Z,-87
2016-07-22T06:06:28.892Z,-86
2016-07-22T06:07:28.895Z,-87
2016-07-22T06:08:28.972Z,-87
2016-07-22T06:09:28.813Z,-87
2016-07-22T06:10:28.835Z,-87
2016-07-22T06:11:28.820Z,-87
2016-07-22T06:12:29.007Z,-87
2016-07-22T06:13:28.851Z,-87
2016-07-22T06:14:29.032Z,-87
2016-07-22T06:15:29.028Z,-87
2016-07-22T06:16:28.769Z,-87
2016-07-22T06:17:28.768Z,-87
2016-07-22T06:18:29.069Z,-87
2016-07-22T06:19:28.973Z,-87
2016-07-22T06:20:28.865Z,-87
2016-07-22T06:21:28.764Z,-87
2016-07-22T06:22:29.025Z,-87
2016-07-22T06:23:29.007Z,-87
2016-07-22T06:24:28.935Z,-87
2016-07-22T06:25:28.863Z,-87
2016-07-22T06:26:28.889Z,-87
2016-07-22T06:27:28.866Z,-87
2016-07-22T06:28:28.961Z,-87
2016-07-22T06:29:28.991Z,-87
2016-07-22T06:30:28.960Z,-87
2016-07-22T06:31:28.869Z,-87
2016-07-22T06:32:28.799Z,-87
2016-07-22T06:33:28.889Z,-87
2016-07-22T06:34:28.899Z,-87
2016-07-22T06:35:28.901Z,-86
2016-07-22T06:36:28.896Z,-87
2016-07-22T06:37:28.874Z,-87
2016-07-22T06:38:28.828Z,-87
2016-07-22T06:39:28.819Z,-87
2016-07-22T06:40:28.981Z,-86
2016-07-22T06:41:28.990Z,-88
2016-07-22T06:42:28.980Z,-88
2016-07-22T06:43:28.909Z,-87
2016-07-22T06:44:28.918Z,-87
2016-07-22T06:45:28.862Z,-87
2016-07-22T06:46:29.034Z,-87
2016-07-22T06:47:29.080Z,-88
2016-07-22T06:48:28.982Z,-87
2016-07-22T06:49:29.065Z,-87
2016-07-22T06:50:28.935Z,-87
2016-07-22T06:51:29.057Z,-88
2016-07-22T06:52:28.941Z,-88
2016-07-22T06:53:29.013Z,-88
2016-07-22T06:54:28.934Z,-87
2016-07-22T06:55:29.037Z,-87
2016-07-22T06:56:28.940Z,-87
2016-07-22T06:57:29.059Z,-87
2016-07-22T06:58:28.897Z,-87
2016-07-22T06:59:29.535Z,-87
2016-07-22T07:00:29.294Z,-87
2016-07-22T07:01:29.653Z,-88
2016-07-22T07:02:29.413Z,-88
2016-07-22T07:03:29.632Z,-86
2016-07-22T07:04:29.371Z,-87
2016-07-22T07:05:28.982Z,-87
2016-07-22T07:06:28.917Z,-88
2016-07-22T07:07:29.006Z,-87
2016-07-22T07:08:29.009Z,-87
2016-07-22T07:09:29.003Z,-87
2016-07-22T07:10:29.206Z,-86
2016-07-22T07:11:28.997Z,-87
2016-07-22T07:12:28.928Z,-87
2016-07-22T07:13:29.001Z,-87
2016-07-22T07:14:29.076Z,-87
2016-07-22T07:15:29.140Z,-87
2016-07-22T07:16:28.998Z,-87
2016-07-22T07:17:29.017Z,-87
2016-07-22T07:18:29.044Z,-87
2016-07-22T07:19:29.088Z,-87
2016-07-22T07:20:28.952Z,-87
2016-07-22T07:21:29.142Z,-87
2016-07-22T07:22:29.105Z,-87
2016-07-22T07:23:29.025Z,-87
2016-07-22T07:24:29.036Z,-86
2016-07-22T07:25:29.111Z,-87
2016-07-22T07:26:29.025Z,-87
2016-07-22T07:27:29.136Z,-87
2016-07-22T07:28:29.072Z,-87
2016-07-22T07:29:29.095Z,-87
2016-07-22T07:30:29.197Z,-87
2016-07-22T07:31:29.135Z,-87
2016-07-22T07:32:29.038Z,-87
2016-07-22T07:33:29.124Z,-87
2016-07-22T07:34:29.248Z,-87
2016-07-22T07:35:29.098Z,-87
2016-07-22T07:36:29.139Z,-87
2016-07-22T07:37:29.140Z,-87
2016-07-22T07:38:29.245Z,-87
2016-07-22T07:39:29.091Z,-87
2016-07-22T07:40:29.166Z,-88
2016-07-22T07:41:29.295Z,-87
2016-07-22T07:42:29.182Z,-87
2016-07-22T07:43:29.165Z,-87
2016-07-22T07:44:29.385Z,-86
2016-07-22T07:45:29.030Z,-88
2016-07-22T07:46:29.218Z,-87
2016-07-22T07:47:29.204Z,-87
2016-07-22T07:48:29.092Z,-87
2016-07-22T07:49:29.268Z,-87
2016-07-22T07:50:29.027Z,-87
2016-07-22T07:51:29.187Z,-88
2016-07-22T07:52:29.355Z,-87
2016-07-22T07:53:29.115Z,-88
2016-07-22T07:54:29.101Z,-87
2016-07-22T07:55:29.305Z,-86
2016-07-22T07:56:29.141Z,-86
2016-07-22T07:57:29.162Z,-87
2016-07-22T07:58:29.174Z,-87
2016-07-22T07:59:29.157Z,-87
2016-07-22T08:00:29.141Z,-87
2016-07-22T08:01:29.247Z,-87
2016-07-22T08:02:29.841Z,-86
2016-07-22T08:03:29.142Z,-86
2016-07-22T08:04:29.165Z,-87
2016-07-22T08:05:29.157Z,-86
2016-07-22T08:06:29.091Z,-86
2016-07-22T08:07:29.102Z,-86
2016-07-22T08:08:29.136Z,-87
2016-07-22T08:09:29.090Z,-87
2016-07-22T08:10:29.174Z,-87
2016-07-22T08:11:29.236Z,-86
2016-07-22T08:12:29.194Z,-87
2016-07-22T08:13:29.194Z,-87
2016-07-22T08:14:29.323Z,-87
2016-07-22T08:15:29.233Z,-86
2016-07-22T08:16:29.288Z,-87
2016-07-22T08:17:29.175Z,-87
2016-07-22T08:18:29.120Z,-87
2016-07-22T08:19:29.233Z,-87
2016-07-22T08:20:29.138Z,-87
2016-07-22T08:21:29.301Z,-87
2016-07-22T08:22:29.132Z,-87
2016-07-22T08:23:29.199Z,-87
2016-07-22T08:24:29.214Z,-87
2016-07-22T08:25:29.169Z,-87
2016-07-22T08:26:29.410Z,-88
2016-07-22T08:27:29.476Z,-86
2016-07-22T08:28:29.513Z,-88
2016-07-22T08:29:29.669Z,-87
2016-07-22T08:30:29.762Z,-87
2016-07-22T08:31:29.799Z,-88
2016-07-22T08:32:29.793Z,-88
2016-07-22T08:33:29.309Z,-87
2016-07-22T08:34:29.402Z,-87
2016-07-22T08:35:29.296Z,-87
2016-07-22T08:36:29.338Z,-87
2016-07-22T08:37:29.398Z,-87
2016-07-22T08:38:29.336Z,-87
2016-07-22T08:39:29.304Z,-87
2016-07-22T08:40:29.250Z,-87
2016-07-22T08:41:29.344Z,-87
2016-07-22T08:42:29.444Z,-87
2016-07-22T08:43:29.370Z,-87
2016-07-22T08:44:29.519Z,-88
2016-07-22T08:45:29.291Z,-87
2016-07-22T08:46:29.395Z,-87
2016-07-22T08:47:29.358Z,-87
2016-07-22T08:48:29.299Z,-87
2016-07-22T08:49:29.435Z,-87
2016-07-22T08:50:29.569Z,-87
2016-07-22T08:51:29.453Z,-87
2016-07-22T08:52:29.486Z,-87
2016-07-22T08:53:29.282Z,-87
2016-07-22T08:54:29.395Z,-87
2016-07-22T08:55:29.262Z,-87
2016-07-22T08:56:29.351Z,-87
2016-07-22T08:57:29.286Z,-87
2016-07-22T08:58:29.515Z,-87
2016-07-22T08:59:29.339Z,-87
2016-07-22T09:00:30.491Z,-87
2016-07-22T09:01:29.544Z,-87
2016-07-22T09:02:29.483Z,-87
2016-07-22T09:03:29.524Z,-87
2016-07-22T09:04:29.427Z,-87
2016-07-22T09:05:29.501Z,-87
2016-07-22T09:06:29.424Z,-87
2016-07-22T09:07:29.530Z,-87
2016-07-22T09:08:29.476Z,-86
2016-07-22T09:09:29.500Z,-87
2016-07-22T09:10:29.339Z,-87
2016-07-22T09:11:29.562Z,-88
2016-07-22T09:12:29.440Z,-87
2016-07-22T09:13:29.428Z,-87
2016-07-22T09:14:29.493Z,-87
2016-07-22T09:15:29.481Z,-87
2016-07-22T09:16:29.538Z,-87
2016-07-22T09:17:29.501Z,-86
2016-07-22T09:18:29.465Z,-87
2016-07-22T09:19:29.410Z,-87
2016-07-22T09:20:29.394Z,-86
2016-07-22T09:21:29.455Z,-86
2016-07-22T09:22:29.581Z,-86
2016-07-22T09:23:29.561Z,-86
2016-07-22T09:24:29.603Z,-87
2016-07-22T09:25:29.541Z,-86
2016-07-22T09:26:29.537Z,-87
2016-07-22T09:27:29.637Z,-87
2016-07-22T09:28:29.519Z,-87
2016-07-22T09:29:29.392Z,-87
2016-07-22T09:30:29.505Z,-86
2016-07-22T09:31:29.637Z,-86
2016-07-22T09:32:29.577Z,-86
2016-07-22T09:33:29.557Z,-86
2016-07-22T09:34:29.554Z,-86
2016-07-22T09:35:29.597Z,-86
2016-07-22T09:36:29.464Z,-87
2016-07-22T09:37:29.575Z,-87
2016-07-22T09:38:29.585Z,-87
2016-07-22T09:39:29.426Z,-87
2016-07-22T09:40:29.492Z,-86
2016-07-22T09:41:29.605Z,-86
2016-07-22T09:42:29.573Z,-86
2016-07-22T09:43:29.538Z,-86
2016-07-22T09:44:29.596Z,-86
2016-07-22T09:45:29.579Z,-87
2016-07-22T09:46:32.071Z,-88
2016-07-22T09:47:29.655Z,-84
2016-07-22T09:48:29.547Z,-85
2016-07-22T09:49:29.644Z,-85
2016-07-22T09:50:29.693Z,-85
2016-07-22T09:51:29.577Z,-85
2016-07-22T09:52:29.681Z,-85
2016-07-22T09:53:29.575Z,-85
2016-07-22T09:54:29.691Z,-84
2016-07-22T09:55:29.639Z,-85
2016-07-22T09:56:29.447Z,-85
2016-07-22T09:57:29.605Z,-85
2016-07-22T09:58:29.546Z,-85
2016-07-22T09:59:29.510Z,-85
2016-07-22T10:00:29.627Z,-85
2016-07-22T10:01:29.419Z,-85
2016-07-22T10:02:29.580Z,-85
2016-07-22T10:03:29.602Z,-84
2016-07-22T10:04:29.591Z,-84
2016-07-22T10:05:29.706Z,-84
2016-07-22T10:06:29.536Z,-84
2016-07-22T10:07:29.601Z,-84
2016-07-22T10:08:29.659Z,-84
2016-07-22T10:09:29.667Z,-84
2016-07-22T10:10:29.627Z,-84
2016-07-22T10:11:29.540Z,-84
2016-07-22T10:12:29.576Z,-85
2016-07-22T10:13:29.654Z,-85
2016-07-22T10:14:29.563Z,-84
2016-07-22T10:15:29.658Z,-84
2016-07-22T10:16:29.574Z,-84
2016-07-22T10:17:29.614Z,-84
2016-07-22T10:18:29.712Z,-86
2016-07-22T10:19:29.729Z,-84
2016-07-22T10:20:29.512Z,-83
2016-07-22T10:21:29.854Z,-84
2016-07-22T10:22:30.203Z,-84
2016-07-22T10:23:29.687Z,-87
2016-07-22T10:24:29.817Z,-84
2016-07-22T10:25:29.944Z,-86
2016-07-22T10:26:29.773Z,-85
2016-07-22T10:27:29.754Z,-86
2016-07-22T10:28:29.670Z,-85
2016-07-22T10:29:29.680Z,-85
2016-07-22T10:30:30.498Z,-85
2016-07-22T10:31:29.690Z,-84
2016-07-22T10:32:29.640Z,-84
2016-07-22T10:33:29.663Z,-84
2016-07-22T10:34:29.801Z,-83
2016-07-22T10:35:29.553Z,-83
2016-07-22T10:36:29.621Z,-83
2016-07-22T10:37:29.613Z,-84
2016-07-22T10:38:29.867Z,-84
2016-07-22T10:39:29.791Z,-84
2016-07-22T10:40:29.819Z,-83
2016-07-22T10:41:29.736Z,-83
2016-07-22T10:42:29.630Z,-83
2016-07-22T10:43:29.581Z,-84
2016-07-22T10:44:29.815Z,-84
2016-07-22T10:45:29.694Z,-84
2016-07-22T10:46:29.686Z,-84
2016-07-22T10:47:29.719Z,-84
2016-07-22T10:48:29.772Z,-84
2016-07-22T10:49:29.660Z,-84
2016-07-22T10:50:29.808Z,-83
2016-07-22T10:51:29.605Z,-84
2016-07-22T10:52:29.748Z,-85
2016-07-22T10:53:29.673Z,-84
2016-07-22T10:54:29.646Z,-83
2016-07-22T10:55:29.725Z,-83
2016-07-22T10:56:29.810Z,-83
2016-07-22T10:57:29.680Z,-84
2016-07-22T10:58:29.653Z,-84
2016-07-22T10:59:29.808Z,-85
2016-07-22T11:00:29.848Z,-85
2016-07-22T11:01:29.675Z,-84
2016-07-22T11:02:29.937Z,-84
2016-07-22T11:03:29.733Z,-84
2016-07-22T11:04:29.636Z,-84
2016-07-22T11:05:29.890Z,-83
2016-07-22T11:06:29.916Z,-82
2016-07-22T11:07:29.790Z,-82
2016-07-22T11:08:29.875Z,-82
2016-07-22T11:09:29.682Z,-82
2016-07-22T11:10:29.986Z,-83
2016-07-22T11:11:29.743Z,-80
2016-07-22T11:12:30.649Z,-87
2016-07-22T11:13:29.782Z,-85
2016-07-22T11:14:29.811Z,-85
2016-07-22T11:15:29.720Z,-85
2016-07-22T11:16:29.936Z,-84
2016-07-22T11:17:29.933Z,-85
2016-07-22T11:18:29.790Z,-85
2016-07-22T11:19:29.736Z,-85
2016-07-22T11:20:29.990Z,-85
2016-07-22T11:21:29.971Z,-85
2016-07-22T11:22:29.880Z,-85
2016-07-22T11:23:29.819Z,-85
2016-07-22T11:24:29.847Z,-85
2016-07-22T11:25:29.741Z,-85
2016-07-22T11:26:31.251Z,-85
2016-07-22T11:27:29.812Z,-85
2016-07-22T11:28:29.675Z,-85
2016-07-22T11:29:29.932Z,-85
2016-07-22T11:30:29.923Z,-85
2016-07-22T11:31:29.891Z,-86
2016-07-22T11:32:29.878Z,-85
2016-07-22T11:33:29.818Z,-86
2016-07-22T11:34:29.846Z,-85
2016-07-22T11:35:29.869Z,-85
2016-07-22T11:36:29.712Z,-85
2016-07-22T11:37:29.889Z,-85
2016-07-22T11:38:29.781Z,-86
2016-07-22T11:39:29.919Z,-85
2016-07-22T11:40:29.847Z,-85
2016-07-22T11:41:29.909Z,-86
2016-07-22T11:42:29.733Z,-85
2016-07-22T11:43:29.965Z,-85
2016-07-22T11:44:29.921Z,-85
2016-07-22T11:45:29.879Z,-86
2016-07-22T11:46:30.397Z,-86
2016-07-22T11:47:29.808Z,-85
2016-07-22T11:48:29.839Z,-85
2016-07-22T11:49:30.545Z,-85
2016-07-22T11:50:29.794Z,-85
2016-07-22T11:51:29.834Z,-86
2016-07-22T11:52:30.151Z,-85
2016-07-22T11:53:30.623Z,-86
2016-07-22T11:54:29.983Z,-86
2016-07-22T11:55:30.003Z,-85
2016-07-22T11:56:34.601Z,-85
2016-07-22T11:57:30.081Z,-85
2016-07-22T11:58:29.853Z,-86
2016-07-22T11:59:30.458Z,-85
2016-07-22T12:00:32.806Z,-85
2016-07-22T12:01:29.955Z,-85
2016-07-22T12:02:29.801Z,-85
2016-07-22T12:03:29.959Z,-86
2016-07-22T12:04:30.118Z,-86
2016-07-22T12:05:29.870Z,-86
2016-07-22T12:06:29.934Z,-85
2016-07-22T12:07:29.862Z,-86
2016-07-22T12:08:29.865Z,-85
2016-07-22T12:09:29.798Z,-85
2016-07-22T12:10:30.021Z,-86
2016-07-22T12:11:29.928Z,-85
2016-07-22T12:12:29.949Z,-85
2016-07-22T12:13:29.944Z,-86
2016-07-22T12:14:30.188Z,-86
2016-07-22T12:15:30.441Z,-86
2016-07-22T12:16:30.384Z,-85
2016-07-22T12:17:30.086Z,-86
2016-07-22T12:18:31.103Z,-86
2016-07-22T12:19:30.030Z,-86
2016-07-22T12:20:30.078Z,-85
2016-07-22T12:21:30.017Z,-86
2016-07-22T12:22:29.942Z,-85
2016-07-22T12:23:29.960Z,-86
2016-07-22T12:36:30.930Z,-86
2016-07-22T12:36:38.000Z,-85
2016-07-22T12:37:37.896Z,-86
2016-07-22T12:38:37.982Z,-85
2016-07-22T12:39:37.929Z,-85
2016-07-22T12:40:38.028Z,-85
2016-07-22T12:41:37.921Z,-86
2016-07-22T12:42:37.949Z,-85
2016-07-22T12:43:37.930Z,-85
2016-07-22T12:44:37.918Z,-86
2016-07-22T12:45:37.993Z,-87
2016-07-22T12:46:38.117Z,-86
2016-07-22T12:47:38.017Z,-86
2016-07-22T12:48:38.034Z,-86
2016-07-22T12:49:37.984Z,-86
2016-07-22T12:50:37.910Z,-86
2016-07-22T12:51:37.938Z,-86
2016-07-22T12:52:37.974Z,-86
2016-07-22T12:53:37.934Z,-86
2016-07-22T12:54:37.926Z,-86
2016-07-22T12:55:37.969Z,-85
2016-07-22T12:56:38.126Z,-86
2016-07-22T12:57:37.952Z,-86
2016-07-22T12:58:38.466Z,-86
2016-07-22T12:59:37.910Z,-85
2016-07-22T13:00:37.958Z,-86
2016-07-22T13:01:38.036Z,-85
2016-07-22T13:02:38.112Z,-86
2016-07-22T13:03:38.001Z,-86
2016-07-22T13:04:38.138Z,-85
2016-07-22T13:05:38.081Z,-86
2016-07-22T13:06:37.887Z,-85
2016-07-22T13:07:38.047Z,-86
2016-07-22T13:08:38.020Z,-86
2016-07-22T13:09:38.020Z,-86
2016-07-22T13:10:38.070Z,-86
2016-07-22T13:11:37.945Z,-85
2016-07-22T13:12:38.082Z,-86
2016-07-22T13:13:38.033Z,-85
2016-07-22T13:14:37.964Z,-85
2016-07-22T13:15:38.116Z,-85
2016-07-22T13:16:38.250Z,-85
2016-07-22T13:17:38.074Z,-86
2016-07-22T13:18:38.184Z,-85
2016-07-22T13:19:37.994Z,-85
2016-07-22T13:20:38.132Z,-86
2016-07-22T13:21:38.097Z,-85
2016-07-22T13:22:38.176Z,-85
2016-07-22T13:23:38.018Z,-85
2016-07-22T13:24:38.191Z,-85
2016-07-22T13:25:38.008Z,-84
2016-07-22T13:26:37.951Z,-85
2016-07-22T13:27:38.097Z,-85
2016-07-22T13:28:38.241Z,-85
2016-07-22T13:29:38.179Z,-85
2016-07-22T13:30:38.089Z,-86
2016-07-22T13:31:38.155Z,-85
2016-07-22T13:32:38.041Z,-84
2016-07-22T13:33:38.056Z,-85
2016-07-22T13:34:38.059Z,-85
2016-07-22T13:35:38.007Z,-85
2016-07-22T13:36:38.082Z,-85
2016-07-22T13:37:38.070Z,-84
2016-07-22T13:38:38.246Z,-86
2016-07-22T13:39:38.042Z,-85
2016-07-22T13:40:38.034Z,-85
2016-07-22T13:41:38.169Z,-85
2016-07-22T13:42:38.238Z,-86
2016-07-22T13:43:38.184Z,-85
2016-07-22T13:44:38.106Z,-85
2016-07-22T13:45:38.048Z,-85
2016-07-22T13:46:38.238Z,-84
2016-07-22T13:47:38.356Z,-85
2016-07-22T13:48:38.370Z,-86
2016-07-22T13:49:38.257Z,-86
2016-07-22T13:50:38.177Z,-85
2016-07-22T13:51:38.140Z,-85
2016-07-22T13:52:38.162Z,-85
2016-07-22T13:53:38.174Z,-86
2016-07-22T13:54:38.093Z,-85
2016-07-22T13:55:38.237Z,-85
2016-07-22T13:56:38.093Z,-85
2016-07-22T13:57:38.020Z,-85
2016-07-22T13:58:38.213Z,-86
2016-07-22T13:59:38.101Z,-86
2016-07-22T14:00:38.072Z,-85
2016-07-22T14:01:38.101Z,-86